createdAt,value
2023-02-19T00:01:52.270Z,65.81
2023-02-19T00:04:58.244Z,66.39
2023-02-19T00:08:04.762Z,66.29
2023-02-19T00:11:19.202Z,65.90
2023-02-19T00:14:25.869Z,65.94
2023-02-19T00:17:31.628Z,65.85
2023-02-19T00:20:38.240Z,65.94
2023-02-19T00:23:44.402Z,65.41
2023-02-19T00:26:53.731Z,65.60
2023-02-19T00:29:59.494Z,65.30
2023-02-19T00:33:06.276Z,65.69
2023-02-19T00:36:12.504Z,65.62
2023-02-19T00:39:21.573Z,65.24
2023-02-19T00:42:30.050Z,65.25
2023-02-19T00:45:37.063Z,65.52
2023-02-19T00:48:42.861Z,65.68
2023-02-19T00:51:50.489Z,65.77
2023-02-19T00:54:56.834Z,66.36
2023-02-19T00:58:06.036Z,66.39
2023-02-19T01:01:13.864Z,66.29
2023-02-19T01:04:20.553Z,66.97
2023-02-19T01:07:26.514Z,67.05
2023-02-19T01:10:33.099Z,66.91
2023-02-19T01:13:42.127Z,66.87
2023-02-19T01:16:48.992Z,66.80
2023-02-19T01:19:55.980Z,66.66
2023-02-19T01:23:02.640Z,67.33
2023-02-19T01:26:09.942Z,66.79
2023-02-19T01:29:20.260Z,67.30
2023-02-19T01:32:26.335Z,66.97
2023-02-19T01:35:33.134Z,67.13
2023-02-19T01:38:39.012Z,67.53
2023-02-19T01:41:45.945Z,67.49
2023-02-19T01:45:33.497Z,67.54
2023-02-19T01:48:42.997Z,67.97
2023-02-19T01:51:55.845Z,67.49
2023-02-19T01:55:06.309Z,68.07
2023-02-19T01:58:13.577Z,67.81
2023-02-19T02:01:24.131Z,67.85
2023-02-19T02:04:34.276Z,67.67
2023-02-19T02:07:53.455Z,67.45
2023-02-19T02:11:00.960Z,67.82
2023-02-19T02:14:08.768Z,68.01
2023-02-19T02:17:31.587Z,67.99
2023-02-19T02:21:16.202Z,68.08
2023-02-19T02:24:56.070Z,68.37
2023-02-19T02:28:29.114Z,67.77
2023-02-19T02:31:47.099Z,67.66
2023-02-19T02:35:04.209Z,67.31
2023-02-19T02:38:16.698Z,67.53
2023-02-19T02:41:24.213Z,67.67
2023-02-19T02:44:38.436Z,67.36
2023-02-19T02:47:56.068Z,67.48
2023-02-19T02:51:14.083Z,67.75
2023-02-19T02:54:46.907Z,67.77
2023-02-19T02:57:53.753Z,67.90
2023-02-19T03:01:20.410Z,67.86
2023-02-19T03:05:01.117Z,67.79
2023-02-19T03:08:17.244Z,67.85
2023-02-19T03:11:36.952Z,67.69
2023-02-19T03:15:04.451Z,67.50
2023-02-19T03:18:29.625Z,67.67
2023-02-19T03:21:46.519Z,67.81
2023-02-19T03:25:12.528Z,67.46
2023-02-19T03:28:45.683Z,67.76
2023-02-19T03:31:57.922Z,67.70
2023-02-19T03:35:16.819Z,67.49
2023-02-19T03:38:39.833Z,66.88
2023-02-19T03:42:06.025Z,66.94
2023-02-19T03:45:50.405Z,66.81
2023-02-19T03:49:08.442Z,67.14
2023-02-19T03:52:27.328Z,66.93
2023-02-19T03:55:52.235Z,67.17
2023-02-19T03:59:12.422Z,66.80
2023-02-19T04:02:32.910Z,67.44
2023-02-19T04:05:50.020Z,67.17
2023-02-19T04:09:02.757Z,66.61
2023-02-19T04:12:14.068Z,66.43
2023-02-19T04:15:29.608Z,66.05
2023-02-19T04:18:43.949Z,65.90
2023-02-19T04:21:53.528Z,66.25
2023-02-19T04:25:01.126Z,65.97
2023-02-19T04:28:12.473Z,66.34
2023-02-19T04:31:18.622Z,65.97
2023-02-19T04:34:25.306Z,66.47
2023-02-19T04:37:31.365Z,66.26
2023-02-19T04:40:38.198Z,66.36
2023-02-19T04:43:46.779Z,66.48
2023-02-19T04:46:53.519Z,66.46
2023-02-19T04:49:59.274Z,66.48
2023-02-19T04:53:05.800Z,66.70
2023-02-19T04:56:13.560Z,66.90
2023-02-19T04:59:22.765Z,67.04
2023-02-19T05:02:28.677Z,67.09
2023-02-19T05:05:35.187Z,66.76
2023-02-19T05:08:41.186Z,66.92
2023-02-19T05:11:47.783Z,67.11
2023-02-19T05:14:56.249Z,67.65
2023-02-19T05:18:03.029Z,67.09
2023-02-19T05:21:09.532Z,67.21
2023-02-19T05:24:16.293Z,66.85
2023-02-19T05:27:22.195Z,67.13
2023-02-19T05:30:33.438Z,66.55
2023-02-19T05:33:41.551Z,66.42
2023-02-19T05:36:48.034Z,66.67
2023-02-19T05:39:53.878Z,66.11
2023-02-19T05:43:00.539Z,65.92
2023-02-19T05:46:10.578Z,66.04
2023-02-19T05:49:17.255Z,65.63
2023-02-19T05:52:23.315Z,65.83
2023-02-19T05:55:30.015Z,65.58
2023-02-19T05:58:35.763Z,66.32
2023-02-19T06:01:45.090Z,66.54
2023-02-19T06:04:50.866Z,66.25
2023-02-19T06:07:57.464Z,66.94
2023-02-19T06:11:03.240Z,66.38
2023-02-19T06:14:10.344Z,66.82
2023-02-19T06:17:19.203Z,66.88
2023-02-19T06:20:26.390Z,67.08
2023-02-19T06:23:32.408Z,67.39
2023-02-19T06:26:39.621Z,67.68
2023-02-19T06:29:45.475Z,67.28
2023-02-19T06:32:55.833Z,67.28
2023-02-19T06:36:03.403Z,67.38
2023-02-19T06:39:10.284Z,67.22
2023-02-19T06:42:16.167Z,66.67
2023-02-19T06:45:22.676Z,67.05
2023-02-19T06:48:34.685Z,66.90
2023-02-19T06:51:41.198Z,67.01
2023-02-19T06:54:47.664Z,66.96
2023-02-19T06:57:54.394Z,67.18
2023-02-19T07:01:00.239Z,67.29
2023-02-19T07:04:10.504Z,67.29
2023-02-19T07:07:16.393Z,67.84
2023-02-19T07:10:23.036Z,69.34
2023-02-19T07:13:30.374Z,70.89
2023-02-19T07:16:37.347Z,70.83
2023-02-19T07:19:45.829Z,71.43
2023-02-19T07:22:52.344Z,71.38
2023-02-19T07:26:01.244Z,71.09
2023-02-19T07:29:08.068Z,71.75
2023-02-19T07:32:13.958Z,71.38
2023-02-19T07:35:23.227Z,71.58
2023-02-19T07:38:31.833Z,71.48
2023-02-19T07:41:38.381Z,71.28
2023-02-19T07:44:45.357Z,70.96
2023-02-19T07:47:51.957Z,70.50
2023-02-19T07:51:03.774Z,70.51
2023-02-19T07:54:10.445Z,70.28
2023-02-19T07:57:16.259Z,70.37
2023-02-19T08:00:23.235Z,70.35
2023-02-19T08:03:26.467Z,70.47
2023-02-19T08:06:35.891Z,70.18
2023-02-19T08:09:41.712Z,70.14
2023-02-19T08:13:09.868Z,70.12
2023-02-19T08:16:29.617Z,70.10
2023-02-19T08:19:43.972Z,69.97
2023-02-19T08:22:52.436Z,69.89
2023-02-19T08:26:02.880Z,69.33
2023-02-19T08:29:10.662Z,69.04
2023-02-19T08:32:17.227Z,68.64
2023-02-19T08:35:24.767Z,68.66
2023-02-19T08:38:35.939Z,69.01
2023-02-19T08:41:41.669Z,69.08
2023-02-19T08:44:48.486Z,69.23
2023-02-19T08:47:54.246Z,69.36
2023-02-19T08:51:04.816Z,69.97
2023-02-19T08:54:13.246Z,70.77
2023-02-19T08:57:20.001Z,70.56
2023-02-19T09:00:27.487Z,70.95
2023-02-19T09:03:34.527Z,73.00
2023-02-19T09:06:40.668Z,73.15
2023-02-19T09:09:50.148Z,72.79
2023-02-19T09:12:57.079Z,73.51
2023-02-19T09:16:08.858Z,71.80
2023-02-19T09:19:17.091Z,71.50
2023-02-19T09:22:23.693Z,72.46
2023-02-19T09:25:32.216Z,72.08
2023-02-19T09:28:41.889Z,71.98
2023-02-19T09:31:48.675Z,71.79
2023-02-19T09:34:55.691Z,72.14
2023-02-19T09:38:03.574Z,71.48
2023-02-19T09:41:25.771Z,71.39
2023-02-19T09:44:38.275Z,71.44
2023-02-19T09:47:44.888Z,71.08
2023-02-19T09:50:53.464Z,70.76
2023-02-19T09:54:01.924Z,71.10
2023-02-19T09:57:20.824Z,69.66
2023-02-19T10:00:32.868Z,69.21
2023-02-19T10:03:43.526Z,69.45
2023-02-19T10:06:59.134Z,69.78
2023-02-19T10:10:27.589Z,69.20
2023-02-19T10:13:45.666Z,69.54
2023-02-19T10:16:54.029Z,69.91
2023-02-19T10:20:03.506Z,68.88
2023-02-19T10:23:15.412Z,68.87
2023-02-19T10:26:23.312Z,68.78
2023-02-19T10:29:31.646Z,68.50
2023-02-19T10:32:42.268Z,67.51
2023-02-19T10:36:00.389Z,67.48
2023-02-19T10:39:43.890Z,66.60
2023-02-19T10:42:53.462Z,68.04
2023-02-19T10:46:07.781Z,66.54
2023-02-19T10:49:35.695Z,66.76
2023-02-19T10:52:42.580Z,67.28
2023-02-19T10:55:49.627Z,66.43
2023-02-19T10:58:56.816Z,64.93
2023-02-19T11:02:18.478Z,64.88
2023-02-19T11:05:25.590Z,62.93
2023-02-19T11:08:33.984Z,62.98
2023-02-19T11:11:43.480Z,64.13
2023-02-19T11:14:50.684Z,63.17
2023-02-19T11:18:25.124Z,63.31
2023-02-19T11:21:33.818Z,62.67
2023-02-19T11:24:42.390Z,61.96
2023-02-19T11:28:01.147Z,62.39
2023-02-19T11:31:26.595Z,62.17
2023-02-19T11:34:37.711Z,60.71
2023-02-19T11:38:00.100Z,60.84
2023-02-19T11:41:25.894Z,61.05
2023-02-19T11:44:55.392Z,60.11
2023-02-19T11:48:32.796Z,61.44
2023-02-19T11:52:11.057Z,61.15
2023-02-19T11:55:37.264Z,62.75
2023-02-19T11:59:05.086Z,62.77
2023-02-19T12:02:54.370Z,62.77
2023-02-19T12:06:25.972Z,62.70
2023-02-19T12:10:02.153Z,63.03
2023-02-19T12:13:26.629Z,64.58
2023-02-19T12:16:45.871Z,62.86
2023-02-19T12:20:21.724Z,63.87
2023-02-19T12:24:23.773Z,63.15
2023-02-19T12:27:56.031Z,62.09
2023-02-19T12:31:58.434Z,61.57
2023-02-19T12:35:40.555Z,61.99
2023-02-19T12:38:57.977Z,61.21
2023-02-19T12:42:24.643Z,60.75
2023-02-19T12:45:41.892Z,60.94
2023-02-19T12:49:01.685Z,60.52
2023-02-19T12:52:19.778Z,60.10
2023-02-19T12:55:34.056Z,59.88
2023-02-19T12:58:48.035Z,60.28
2023-02-19T13:02:15.726Z,61.66
2023-02-19T13:05:41.173Z,61.40
2023-02-19T13:09:07.572Z,62.07
2023-02-19T13:12:27.121Z,61.33
2023-02-19T13:15:44.535Z,60.59
2023-02-19T13:18:58.867Z,59.80
2023-02-19T13:22:38.653Z,60.98
2023-02-19T13:26:11.486Z,60.60
2023-02-19T13:29:44.982Z,59.10
2023-02-19T13:33:07.063Z,58.90
2023-02-19T13:36:28.770Z,58.30
2023-02-19T13:39:35.166Z,56.33
2023-02-19T13:42:42.577Z,56.49
2023-02-19T13:45:57.169Z,55.85
2023-02-19T13:49:45.741Z,56.07
2023-02-19T13:52:55.289Z,56.36
2023-02-19T13:56:02.055Z,56.46
2023-02-19T13:59:36.608Z,56.24
2023-02-19T14:02:43.486Z,56.44
2023-02-19T14:06:09.285Z,55.39
2023-02-19T14:09:50.385Z,54.60
2023-02-19T14:12:56.176Z,54.15
2023-02-19T14:16:02.806Z,54.91
2023-02-19T14:19:17.602Z,55.51
2023-02-19T14:23:11.501Z,55.08
2023-02-19T14:26:23.043Z,54.37
2023-02-19T14:29:32.587Z,55.02
2023-02-19T14:32:39.205Z,55.38
2023-02-19T14:35:50.484Z,55.71
2023-02-19T14:39:02.970Z,54.82
2023-02-19T14:42:25.215Z,54.66
2023-02-19T14:45:40.392Z,55.32
2023-02-19T14:48:52.264Z,54.17
2023-02-19T14:52:06.474Z,55.23
2023-02-19T14:55:28.918Z,54.55
2023-02-19T14:58:40.982Z,54.88
2023-02-19T15:01:47.781Z,54.42
2023-02-19T15:04:53.707Z,54.99
2023-02-19T15:08:06.048Z,55.08
2023-02-19T15:11:21.796Z,55.75
2023-02-19T15:14:32.442Z,55.46
2023-02-19T15:17:44.562Z,56.75
2023-02-19T15:21:01.120Z,56.65
2023-02-19T15:24:10.619Z,56.82
2023-02-19T15:27:23.451Z,57.40
2023-02-19T15:30:32.903Z,56.70
2023-02-19T15:33:42.047Z,56.12
2023-02-19T15:36:49.837Z,56.51
2023-02-19T15:39:59.552Z,56.06
2023-02-19T15:43:05.881Z,56.25
2023-02-19T15:46:23.548Z,55.67
2023-02-19T15:49:45.126Z,55.43
2023-02-19T15:53:03.900Z,56.00
2023-02-19T15:56:19.098Z,54.94
2023-02-19T15:59:36.856Z,55.29
2023-02-19T16:02:49.461Z,54.81
2023-02-19T16:06:06.011Z,53.93
2023-02-19T16:09:26.171Z,54.52
2023-02-19T16:12:34.896Z,53.93
2023-02-19T16:15:43.873Z,54.27
2023-02-19T16:18:56.871Z,54.15
2023-02-19T16:22:04.732Z,55.20
2023-02-19T16:25:28.086Z,53.89
2023-02-19T16:28:42.262Z,54.33
2023-02-19T16:31:53.713Z,55.61
2023-02-19T16:35:02.432Z,53.82
2023-02-19T16:38:24.402Z,53.01
2023-02-19T16:41:31.143Z,53.22
2023-02-19T16:44:39.062Z,53.45
2023-02-19T16:47:48.608Z,53.38
2023-02-19T16:50:57.622Z,54.08
2023-02-19T16:54:04.756Z,53.62
2023-02-19T16:57:12.717Z,53.95
2023-02-19T17:00:22.515Z,54.18
2023-02-19T17:03:29.442Z,54.21
2023-02-19T17:06:39.844Z,54.45
2023-02-19T17:09:47.821Z,54.71
2023-02-19T17:12:56.328Z,54.62
2023-02-19T17:16:03.241Z,54.00
2023-02-19T17:19:16.965Z,54.30
2023-02-19T17:22:26.862Z,54.43
2023-02-19T17:25:33.777Z,54.70
2023-02-19T17:28:41.476Z,54.14
2023-02-19T17:31:48.837Z,54.07
2023-02-19T17:34:55.109Z,53.90
2023-02-19T17:38:09.739Z,53.21
2023-02-19T17:41:15.721Z,52.82
2023-02-19T17:44:22.531Z,52.89
2023-02-19T17:47:28.587Z,52.47
2023-02-19T17:50:36.103Z,53.13
2023-02-19T17:53:46.670Z,53.59
2023-02-19T17:56:53.863Z,53.63
2023-02-19T17:59:59.876Z,54.27
2023-02-19T18:03:07.631Z,54.29
2023-02-19T18:06:14.269Z,53.69
2023-02-19T18:09:23.924Z,53.86
2023-02-19T18:12:29.814Z,54.08
2023-02-19T18:15:36.735Z,54.05
2023-02-19T18:18:44.563Z,54.07
2023-02-19T18:21:51.211Z,54.17
2023-02-19T18:24:59.802Z,54.22
2023-02-19T18:28:06.719Z,54.00
2023-02-19T18:31:15.330Z,54.32
2023-02-19T18:34:23.276Z,54.02
2023-02-19T18:37:31.903Z,53.72
2023-02-19T18:40:41.715Z,53.84
2023-02-19T18:43:51.034Z,53.60
2023-02-19T18:47:02.600Z,54.13
2023-02-19T18:50:13.536Z,53.95
2023-02-19T18:53:20.428Z,53.81
2023-02-19T18:56:29.539Z,53.56
2023-02-19T18:59:36.585Z,54.03
2023-02-19T19:02:48.994Z,53.84
2023-02-19T19:05:58.696Z,54.01
2023-02-19T19:09:06.492Z,53.94
2023-02-19T19:12:16.500Z,55.15
2023-02-19T19:15:22.683Z,54.42
2023-02-19T19:18:31.405Z,54.51
2023-02-19T19:21:39.288Z,54.55
2023-02-19T19:24:46.869Z,54.66
2023-02-19T19:27:59.195Z,54.74
2023-02-19T19:31:06.017Z,54.68
2023-02-19T19:34:12.379Z,55.11
2023-02-19T19:37:19.443Z,55.22
2023-02-19T19:40:25.406Z,55.56
2023-02-19T19:43:36.783Z,55.58
2023-02-19T19:46:48.662Z,55.60
2023-02-19T19:49:55.422Z,55.37
2023-02-19T19:53:01.354Z,55.63
2023-02-19T19:56:09.665Z,55.70
2023-02-19T19:59:20.373Z,55.68
2023-02-19T20:02:28.989Z,56.02
2023-02-19T20:05:35.077Z,55.74
2023-02-19T20:08:43.958Z,55.87
2023-02-19T20:11:52.995Z,55.98
2023-02-19T20:15:03.359Z,56.00
2023-02-19T20:18:09.523Z,56.13
2023-02-19T20:21:16.312Z,55.96
2023-02-19T20:24:26.515Z,56.12
2023-02-19T20:27:33.185Z,56.26
2023-02-19T20:30:42.286Z,56.22
2023-02-19T20:33:51.696Z,56.86
2023-02-19T20:37:00.193Z,56.40
2023-02-19T20:40:09.330Z,56.47
2023-02-19T20:43:17.859Z,56.21
2023-02-19T20:46:27.116Z,56.51
2023-02-19T20:49:35.417Z,56.46
2023-02-19T20:52:42.975Z,56.32
2023-02-19T20:55:48.823Z,56.18
2023-02-19T20:58:55.977Z,56.09
2023-02-19T21:02:05.471Z,55.85
2023-02-19T21:05:13.754Z,56.32
2023-02-19T21:08:19.972Z,55.89
2023-02-19T21:11:26.573Z,56.43
2023-02-19T21:14:32.439Z,56.35
2023-02-19T21:17:41.798Z,56.09
2023-02-19T21:20:48.130Z,56.50
2023-02-19T21:23:54.954Z,56.42
2023-02-19T21:27:00.782Z,56.69
2023-02-19T21:30:09.622Z,56.78
2023-02-19T21:33:18.448Z,57.09
2023-02-19T21:36:26.667Z,56.76
2023-02-19T21:39:33.688Z,57.22
2023-02-19T21:42:40.397Z,57.01
2023-02-19T21:45:46.578Z,57.05
2023-02-19T21:48:58.554Z,57.09
2023-02-19T21:52:04.289Z,57.70
2023-02-19T21:55:11.400Z,57.66
2023-02-19T21:58:17.613Z,57.75
2023-02-19T22:01:26.213Z,58.14
2023-02-19T22:04:34.536Z,58.06
2023-02-19T22:07:41.824Z,58.20
2023-02-19T22:10:48.120Z,58.45
2023-02-19T22:13:55.449Z,58.40
2023-02-19T22:17:01.422Z,57.91
2023-02-19T22:20:11.993Z,57.76
2023-02-19T22:23:17.980Z,57.94
2023-02-19T22:26:28.222Z,57.62
2023-02-19T22:29:34.379Z,57.86
2023-02-19T22:32:41.154Z,58.14
2023-02-19T22:35:49.848Z,58.39
2023-02-19T22:38:57.949Z,57.85
2023-02-19T22:42:03.968Z,57.73
2023-02-19T22:45:13.825Z,58.19
2023-02-19T22:48:29.511Z,58.08
2023-02-19T22:51:40.483Z,57.58
2023-02-19T22:54:46.865Z,57.69
2023-02-19T22:57:53.635Z,57.54
2023-02-19T23:00:59.448Z,57.93
2023-02-19T23:04:06.227Z,57.55
2023-02-19T23:07:14.695Z,58.66
2023-02-19T23:10:21.413Z,58.42
2023-02-19T23:13:30.462Z,57.96
2023-02-19T23:16:38.981Z,58.08
2023-02-19T23:19:51.301Z,58.40
2023-02-19T23:23:01.037Z,58.27
2023-02-19T23:26:08.764Z,58.29
2023-02-19T23:29:19.691Z,58.22
2023-02-19T23:32:28.409Z,58.35
2023-02-19T23:35:35.305Z,58.45
2023-02-19T23:38:46.057Z,58.08
2023-02-19T23:41:55.403Z,58.29
2023-02-19T23:45:01.675Z,57.94
2023-02-19T23:48:08.365Z,57.95
2023-02-19T23:51:14.558Z,58.47
2023-02-19T23:54:23.746Z,57.75
2023-02-19T23:57:29.571Z,57.69
